createdAt,value
2018-09-27T00:02:28.003Z,50.78
2018-09-27T00:04:57.153Z,51.37
2018-09-27T00:07:26.692Z,50.59
2018-09-27T00:09:55.859Z,51.44
2018-09-27T00:12:24.996Z,51.16
2018-09-27T00:14:54.344Z,51.04
2018-09-27T00:17:23.483Z,50.98
2018-09-27T00:19:52.666Z,50.66
2018-09-27T00:22:22.211Z,50.05
2018-09-27T00:24:51.346Z,50.24
2018-09-27T00:27:20.457Z,50.16
2018-09-27T00:29:50.059Z,49.70
2018-09-27T00:32:19.212Z,48.71
2018-09-27T00:34:48.337Z,48.39
2018-09-27T00:37:17.742Z,47.74
2018-09-27T00:39:46.916Z,48.02
2018-09-27T00:42:16.086Z,47.37
2018-09-27T00:44:45.553Z,46.89
2018-09-27T00:47:14.706Z,47.60
2018-09-27T00:49:43.834Z,47.62
2018-09-27T00:52:12.941Z,47.21
2018-09-27T00:54:42.001Z,47.07
2018-09-27T00:57:10.973Z,47.25
2018-09-27T00:59:40.238Z,47.23
2018-09-27T01:02:09.187Z,47.24
2018-09-27T01:04:38.159Z,46.68
2018-09-27T01:07:07.535Z,46.62
2018-09-27T01:09:36.544Z,47.28
2018-09-27T01:12:05.540Z,47.46
2018-09-27T01:14:34.830Z,47.37
2018-09-27T01:17:03.795Z,46.82
2018-09-27T01:19:32.890Z,46.65
2018-09-27T01:22:02.007Z,46.34
2018-09-27T01:24:30.941Z,45.33
2018-09-27T01:26:59.933Z,46.14
2018-09-27T01:29:29.035Z,46.25
2018-09-27T01:31:57.992Z,46.70
2018-09-27T01:34:26.993Z,46.48
2018-09-27T01:36:56.336Z,46.58
2018-09-27T01:39:25.272Z,46.80
2018-09-27T01:41:54.251Z,46.34
2018-09-27T01:44:23.621Z,46.32
2018-09-27T01:46:52.556Z,46.27
2018-09-27T01:49:21.528Z,46.45
2018-09-27T01:51:50.609Z,46.68
2018-09-27T01:54:19.624Z,47.00
2018-09-27T01:56:48.587Z,46.75
2018-09-27T01:59:17.856Z,46.40
2018-09-27T02:01:46.901Z,45.95
2018-09-27T02:04:15.918Z,46.34
2018-09-27T02:06:45.196Z,46.09
2018-09-27T02:09:14.167Z,45.99
2018-09-27T02:11:43.132Z,47.08
2018-09-27T02:14:12.255Z,46.93
2018-09-27T02:16:41.244Z,47.19
2018-09-27T02:19:10.197Z,46.32
2018-09-27T02:21:39.494Z,47.28
2018-09-27T02:24:08.468Z,46.83
2018-09-27T02:26:37.415Z,47.28
2018-09-27T02:29:06.722Z,51.72
2018-09-27T02:31:35.662Z,48.69
2018-09-27T02:34:04.608Z,51.19
2018-09-27T02:36:33.812Z,48.83
2018-09-27T02:39:02.822Z,48.60
2018-09-27T02:41:31.881Z,49.05
2018-09-27T02:44:01.106Z,48.61
2018-09-27T02:46:30.068Z,48.57
2018-09-27T02:48:59.014Z,48.54
2018-09-27T02:51:28.123Z,47.79
2018-09-27T02:53:57.054Z,48.05
2018-09-27T02:56:26.124Z,48.16
2018-09-27T02:58:55.263Z,47.26
2018-09-27T03:01:24.242Z,47.37
2018-09-27T03:03:53.336Z,47.47
2018-09-27T03:06:22.339Z,48.21
2018-09-27T03:08:51.302Z,47.20
2018-09-27T03:14:13.817Z,47.32
2018-09-27T03:16:42.756Z,47.44
2018-09-27T03:19:11.708Z,52.08
2018-09-27T03:21:40.856Z,51.68
2018-09-27T03:24:09.810Z,48.63
2018-09-27T03:26:38.759Z,48.54
2018-09-27T03:29:08.036Z,48.25
2018-09-27T03:31:37.020Z,48.40
2018-09-27T03:34:06.008Z,47.63
2018-09-27T03:36:35.289Z,47.26
2018-09-27T03:39:05.078Z,47.39
2018-09-27T03:41:34.075Z,47.55
2018-09-27T03:44:03.207Z,47.48
2018-09-27T03:46:32.186Z,47.42
2018-09-27T03:49:01.140Z,49.94
2018-09-27T03:51:30.406Z,47.67
2018-09-27T03:53:59.332Z,49.73
2018-09-27T03:56:30.276Z,50.26
2018-09-27T03:59:01.528Z,50.35
2018-09-27T04:01:30.482Z,49.54
2018-09-27T04:03:59.432Z,53.68
2018-09-27T04:06:28.696Z,52.08
2018-09-27T04:08:57.650Z,51.17
2018-09-27T04:11:26.639Z,53.26
2018-09-27T04:13:55.766Z,54.10
2018-09-27T04:16:24.847Z,56.02
2018-09-27T04:18:53.820Z,53.28
2018-09-27T04:21:22.957Z,52.58
2018-09-27T04:23:51.858Z,54.94
2018-09-27T04:26:20.783Z,54.33
2018-09-27T04:28:50.095Z,52.41
2018-09-27T04:31:19.037Z,53.71
2018-09-27T04:33:48.006Z,52.88
2018-09-27T04:36:17.103Z,54.05
2018-09-27T04:38:46.042Z,54.81
2018-09-27T04:41:14.990Z,55.17
2018-09-27T04:43:44.078Z,56.23
2018-09-27T04:46:13.056Z,55.70
2018-09-27T04:48:41.982Z,55.55
2018-09-27T04:51:11.246Z,54.75
2018-09-27T04:53:40.243Z,55.82
2018-09-27T04:56:09.188Z,55.52
2018-09-27T04:58:38.311Z,55.00
2018-09-27T05:01:07.327Z,55.31
2018-09-27T05:03:36.358Z,55.44
2018-09-27T05:06:05.681Z,55.37
2018-09-27T05:08:34.655Z,55.23
2018-09-27T05:11:03.610Z,55.17
2018-09-27T05:13:32.698Z,56.47
2018-09-27T05:16:01.671Z,57.16
2018-09-27T05:18:30.664Z,56.91
2018-09-27T05:21:00.903Z,57.05
2018-09-27T05:23:30.754Z,55.73
2018-09-27T05:26:00.546Z,55.09
2018-09-27T05:28:29.737Z,55.42
2018-09-27T05:30:59.098Z,55.60
2018-09-27T05:33:28.888Z,56.55
2018-09-27T05:35:58.482Z,56.48
2018-09-27T05:38:27.543Z,56.31
2018-09-27T05:40:56.584Z,56.21
2018-09-27T05:43:25.879Z,57.34
2018-09-27T05:45:54.989Z,57.29
2018-09-27T05:48:24.014Z,56.47
2018-09-27T05:50:53.330Z,57.03
2018-09-27T05:53:22.310Z,55.97
2018-09-27T05:55:51.426Z,56.90
2018-09-27T05:58:20.774Z,55.91
2018-09-27T06:00:49.817Z,55.45
2018-09-27T06:03:18.929Z,55.25
2018-09-27T06:05:48.113Z,54.91
2018-09-27T06:08:17.122Z,55.01
2018-09-27T06:10:46.123Z,53.47
2018-09-27T06:13:15.418Z,53.60
2018-09-27T06:15:44.372Z,53.43
2018-09-27T06:18:13.342Z,51.33
2018-09-27T06:20:42.728Z,50.22
2018-09-27T06:23:11.680Z,50.36
2018-09-27T06:25:40.634Z,50.95
2018-09-27T06:28:09.906Z,50.06
2018-09-27T06:30:38.859Z,49.81
2018-09-27T06:33:07.834Z,50.00
2018-09-27T06:35:37.002Z,48.69
2018-09-27T06:38:05.963Z,49.33
2018-09-27T06:40:34.913Z,48.47
2018-09-27T06:43:04.025Z,48.40
2018-09-27T06:45:32.992Z,50.21
2018-09-27T06:48:01.994Z,47.59
2018-09-27T06:50:31.147Z,47.92
2018-09-27T06:53:00.092Z,49.28
2018-09-27T06:55:29.195Z,48.71
2018-09-27T06:57:58.170Z,47.95
2018-09-27T07:00:27.136Z,47.00
2018-09-27T07:02:56.114Z,46.00
2018-09-27T07:05:25.493Z,46.74
2018-09-27T07:07:54.494Z,46.81
2018-09-27T07:10:23.452Z,47.70
2018-09-27T07:12:52.594Z,46.21
2018-09-27T07:15:21.557Z,43.74
2018-09-27T07:17:50.502Z,42.86
2018-09-27T07:20:19.840Z,41.39
2018-09-27T07:22:48.823Z,42.96
2018-09-27T07:25:17.872Z,43.84
2018-09-27T07:27:46.907Z,44.00
2018-09-27T07:30:15.908Z,41.54
2018-09-27T07:32:44.926Z,41.40
2018-09-27T07:35:14.214Z,41.65
2018-09-27T07:37:43.167Z,41.98
2018-09-27T07:40:12.153Z,40.33
2018-09-27T07:42:41.367Z,40.37
2018-09-27T07:45:10.306Z,36.63
2018-09-27T07:47:39.289Z,36.01
2018-09-27T07:50:08.576Z,37.91
2018-09-27T07:52:37.541Z,36.97
2018-09-27T07:55:06.670Z,37.23
2018-09-27T07:57:35.840Z,35.60
2018-09-27T08:00:04.878Z,38.19
2018-09-27T08:02:33.916Z,34.79
2018-09-27T08:05:03.252Z,35.81
2018-09-27T08:07:32.193Z,33.19
2018-09-27T08:10:01.176Z,32.35
2018-09-27T08:12:30.447Z,31.32
2018-09-27T08:14:59.397Z,33.54
2018-09-27T08:17:28.421Z,33.53
2018-09-27T08:19:57.752Z,32.39
2018-09-27T08:22:26.766Z,33.67
2018-09-27T08:24:55.727Z,34.32
2018-09-27T08:27:24.851Z,32.61
2018-09-27T08:29:53.816Z,30.85
2018-09-27T08:32:22.819Z,31.25
2018-09-27T08:34:51.916Z,29.35
2018-09-27T08:37:20.899Z,28.74
2018-09-27T08:39:49.884Z,28.35
2018-09-27T08:42:19.211Z,31.15
2018-09-27T08:44:48.375Z,31.36
2018-09-27T08:47:17.340Z,30.45
2018-09-27T08:49:46.708Z,30.21
2018-09-27T08:52:15.773Z,28.24
2018-09-27T08:54:44.813Z,27.73
2018-09-27T08:57:13.908Z,28.22
2018-09-27T08:59:43.014Z,28.61
2018-09-27T09:02:12.113Z,29.27
2018-09-27T09:04:41.505Z,30.24
2018-09-27T09:07:10.561Z,27.58
2018-09-27T09:09:39.683Z,27.99
2018-09-27T09:12:09.196Z,27.85
2018-09-27T09:14:38.264Z,28.24
2018-09-27T09:17:07.463Z,27.17
2018-09-27T09:19:36.921Z,25.01
2018-09-27T09:22:06.043Z,24.81
2018-09-27T09:24:35.188Z,26.77
2018-09-27T09:27:04.404Z,25.96
2018-09-27T09:29:33.589Z,23.77
2018-09-27T09:32:02.591Z,25.40
2018-09-27T09:34:31.971Z,25.21
2018-09-27T09:37:01.015Z,27.64
2018-09-27T09:39:30.063Z,25.77
2018-09-27T09:41:59.264Z,25.33
2018-09-27T09:44:28.312Z,25.52
2018-09-27T09:46:57.538Z,26.78
2018-09-27T09:49:26.781Z,26.81
2018-09-27T09:51:56.434Z,27.04
2018-09-27T09:54:25.498Z,26.82
2018-09-27T09:56:54.983Z,28.26
2018-09-27T09:59:24.073Z,25.29
2018-09-27T10:01:53.156Z,28.73
2018-09-27T10:04:22.526Z,26.68
2018-09-27T10:06:51.574Z,27.86
2018-09-27T10:09:20.625Z,25.00
2018-09-27T10:11:49.724Z,26.10
2018-09-27T10:14:18.891Z,25.20
2018-09-27T10:16:47.957Z,25.46
2018-09-27T10:19:17.060Z,27.59
2018-09-27T10:21:46.169Z,28.00
2018-09-27T10:24:15.540Z,25.08
2018-09-27T10:26:44.687Z,25.72
2018-09-27T10:29:13.781Z,24.26
2018-09-27T10:31:42.817Z,24.89
2018-09-27T10:34:12.224Z,23.64
2018-09-27T10:36:41.278Z,24.29
2018-09-27T10:39:12.106Z,23.58
2018-09-27T10:41:42.058Z,24.06
2018-09-27T10:44:11.127Z,23.43
2018-09-27T10:46:40.239Z,23.29
2018-09-27T10:49:09.654Z,23.27
2018-09-27T10:51:38.791Z,22.16
2018-09-27T10:54:07.931Z,23.50
2018-09-27T10:56:37.159Z,22.91
2018-09-27T10:59:06.448Z,23.68
2018-09-27T11:01:35.517Z,23.76
2018-09-27T11:04:04.993Z,23.56
2018-09-27T11:06:34.088Z,22.04
2018-09-27T11:09:03.329Z,24.91
2018-09-27T11:11:34.201Z,23.94
2018-09-27T11:14:03.269Z,23.22
2018-09-27T11:16:32.398Z,23.00
2018-09-27T11:19:01.917Z,22.47
2018-09-27T11:21:31.007Z,23.03
2018-09-27T11:24:00.074Z,22.71
2018-09-27T11:26:29.516Z,22.58
2018-09-27T11:29:03.646Z,23.42
2018-09-27T11:33:42.522Z,23.92
2018-09-27T11:36:12.047Z,21.82
2018-09-27T11:38:41.181Z,21.66
2018-09-27T11:41:10.548Z,22.41
2018-09-27T11:43:39.664Z,24.51
2018-09-27T11:46:08.776Z,23.28
2018-09-27T11:48:38.217Z,22.71
2018-09-27T11:51:07.492Z,23.36
2018-09-27T11:53:36.754Z,22.38
2018-09-27T11:56:06.253Z,21.83
2018-09-27T11:58:35.389Z,22.06
2018-09-27T12:01:04.535Z,23.21
2018-09-27T12:03:33.942Z,22.18
2018-09-27T12:06:03.031Z,21.98
2018-09-27T12:08:32.097Z,21.39
2018-09-27T12:11:01.543Z,20.95
2018-09-27T12:13:30.688Z,22.89
2018-09-27T12:16:00.426Z,21.72
2018-09-27T12:18:29.657Z,22.82
2018-09-27T12:20:58.730Z,21.83
2018-09-27T12:23:27.767Z,22.23
2018-09-27T12:25:57.162Z,21.69
2018-09-27T12:28:26.216Z,22.07
2018-09-27T12:33:24.996Z,21.54
2018-09-27T12:35:54.066Z,21.92
2018-09-27T12:38:23.132Z,21.07
2018-09-27T12:40:52.503Z,22.12
2018-09-27T12:43:21.533Z,24.32
2018-09-27T12:45:50.572Z,22.37
2018-09-27T12:48:19.978Z,22.62
2018-09-27T12:50:50.000Z,24.06
2018-09-27T12:53:19.058Z,24.56
2018-09-27T12:55:48.637Z,23.24
2018-09-27T12:58:17.708Z,24.67
2018-09-27T13:00:46.782Z,23.65
2018-09-27T13:03:17.547Z,20.59
2018-09-27T13:05:46.609Z,22.02
2018-09-27T13:08:16.275Z,22.23
2018-09-27T13:10:45.768Z,24.12
2018-09-27T13:13:14.898Z,24.67
2018-09-27T13:15:43.896Z,25.70
2018-09-27T13:18:13.115Z,25.10
2018-09-27T13:20:42.238Z,24.03
2018-09-27T13:23:11.611Z,24.35
2018-09-27T13:25:41.018Z,23.42
2018-09-27T13:28:10.035Z,24.08
2018-09-27T13:30:39.099Z,22.59
2018-09-27T13:33:09.358Z,22.49
2018-09-27T13:35:38.377Z,24.08
2018-09-27T13:38:07.454Z,26.41
2018-09-27T13:40:38.338Z,25.35
2018-09-27T13:43:07.572Z,26.63
2018-09-27T13:45:36.572Z,26.12
2018-09-27T13:48:05.774Z,25.06
2018-09-27T13:50:34.895Z,25.16
2018-09-27T13:53:03.985Z,23.94
2018-09-27T13:55:33.356Z,23.97
2018-09-27T13:58:02.430Z,23.68
2018-09-27T14:00:31.502Z,23.43
2018-09-27T14:03:00.908Z,25.07
2018-09-27T14:05:30.023Z,25.69
2018-09-27T14:07:59.028Z,23.66
2018-09-27T14:10:28.452Z,21.54
2018-09-27T14:12:57.538Z,22.36
2018-09-27T14:15:26.611Z,24.69
2018-09-27T14:17:55.956Z,22.74
2018-09-27T14:20:25.009Z,22.87
2018-09-27T14:22:54.062Z,23.82
2018-09-27T14:25:23.293Z,25.15
2018-09-27T14:27:52.305Z,25.65
2018-09-27T14:30:21.301Z,25.17
2018-09-27T14:32:50.912Z,23.19
2018-09-27T14:35:19.993Z,25.61
2018-09-27T14:37:49.065Z,23.54
2018-09-27T14:40:18.441Z,22.28
2018-09-27T14:42:47.527Z,24.43
2018-09-27T14:45:16.542Z,25.60
2018-09-27T14:47:46.015Z,24.65
2018-09-27T14:50:15.055Z,27.03
2018-09-27T14:52:44.187Z,26.13
2018-09-27T14:55:13.567Z,26.34
2018-09-27T14:57:42.632Z,28.10
2018-09-27T15:00:11.729Z,28.15
2018-09-27T15:02:40.850Z,27.59
2018-09-27T15:05:09.952Z,28.67
2018-09-27T15:07:39.149Z,27.93
2018-09-27T15:10:09.239Z,26.39
2018-09-27T15:12:38.349Z,29.11
2018-09-27T15:15:07.799Z,29.27
2018-09-27T15:17:38.006Z,29.49
2018-09-27T15:20:07.342Z,31.22
2018-09-27T15:22:36.524Z,29.51
2018-09-27T15:25:06.258Z,30.26
2018-09-27T15:27:35.417Z,30.47
2018-09-27T15:30:05.102Z,30.85
2018-09-27T15:32:34.568Z,31.04
2018-09-27T15:35:03.668Z,30.45
2018-09-27T15:37:32.766Z,31.31
2018-09-27T15:40:02.200Z,27.24
2018-09-27T15:42:31.334Z,26.42
2018-09-27T15:45:00.412Z,26.61
2018-09-27T15:47:29.782Z,25.08
2018-09-27T15:49:58.862Z,24.38
2018-09-27T15:52:27.944Z,24.92
2018-09-27T15:54:57.356Z,25.69
2018-09-27T15:57:26.435Z,25.93
2018-09-27T15:59:55.863Z,25.68
2018-09-27T16:02:25.219Z,25.88
2018-09-27T16:04:54.364Z,26.44
2018-09-27T16:07:23.425Z,26.83
2018-09-27T16:09:52.908Z,27.74
2018-09-27T16:12:21.997Z,28.58
2018-09-27T16:14:51.145Z,27.19
2018-09-27T16:17:20.357Z,27.04
2018-09-27T16:19:49.468Z,26.85
2018-09-27T16:22:18.602Z,27.08
2018-09-27T16:24:47.753Z,27.54
2018-09-27T16:27:16.856Z,27.47
2018-09-27T16:29:46.039Z,28.29
2018-09-27T16:32:15.436Z,27.80
2018-09-27T16:34:44.543Z,28.41
2018-09-27T16:37:13.670Z,26.78
2018-09-27T16:39:43.122Z,27.02
2018-09-27T16:42:12.804Z,26.60
2018-09-27T16:44:41.899Z,27.34
2018-09-27T16:47:11.225Z,27.25
2018-09-27T16:49:40.324Z,27.52
2018-09-27T16:52:09.458Z,27.60
2018-09-27T16:54:38.937Z,26.87
2018-09-27T16:57:09.117Z,25.47
2018-09-27T16:59:38.242Z,26.34
2018-09-27T17:02:07.875Z,25.76
2018-09-27T17:04:36.984Z,25.04
2018-09-27T17:07:06.107Z,25.19
2018-09-27T17:09:35.586Z,24.86
2018-09-27T17:12:04.709Z,25.11
2018-09-27T17:14:33.824Z,25.71
2018-09-27T17:17:03.416Z,26.06
2018-09-27T17:19:33.095Z,25.54
2018-09-27T17:22:02.194Z,26.03
2018-09-27T17:24:31.660Z,26.28
2018-09-27T17:27:00.754Z,26.21
2018-09-27T17:29:29.912Z,25.62
2018-09-27T17:31:59.147Z,25.19
2018-09-27T17:34:30.260Z,25.77
2018-09-27T17:36:59.347Z,25.47
2018-09-27T17:39:28.608Z,24.82
2018-09-27T17:41:57.708Z,25.57
2018-09-27T17:44:26.851Z,25.66
2018-09-27T17:46:56.282Z,25.12
2018-09-27T17:49:25.660Z,25.12
2018-09-27T17:51:54.777Z,25.30
2018-09-27T17:54:24.186Z,26.21
2018-09-27T17:56:53.305Z,24.87
2018-09-27T17:59:22.391Z,25.10
2018-09-27T18:01:51.771Z,25.46
2018-09-27T18:04:22.174Z,26.45
2018-09-27T18:06:51.324Z,27.98
2018-09-27T18:09:21.142Z,29.40
2018-09-27T18:11:50.323Z,25.35
2018-09-27T18:14:19.578Z,26.39
2018-09-27T18:16:50.187Z,28.51
2018-09-27T18:19:20.029Z,26.90
2018-09-27T18:21:49.205Z,29.71
2018-09-27T18:24:18.714Z,29.58
2018-09-27T18:26:48.178Z,28.88
2018-09-27T18:29:17.875Z,29.05
2018-09-27T18:31:47.303Z,31.71
2018-09-27T18:34:16.419Z,31.25
2018-09-27T18:36:46.559Z,34.20
2018-09-27T18:39:15.797Z,32.08
2018-09-27T18:41:44.884Z,31.62
2018-09-27T18:44:14.336Z,30.25
2018-09-27T18:46:43.978Z,30.04
2018-09-27T18:49:13.072Z,29.67
2018-09-27T18:51:42.169Z,30.22
2018-09-27T18:54:12.406Z,30.64
2018-09-27T18:56:41.482Z,30.29
2018-09-27T18:59:10.578Z,30.91
2018-09-27T19:01:40.681Z,31.30
2018-09-27T19:04:09.829Z,31.37
2018-09-27T19:06:39.144Z,31.36
2018-09-27T19:09:08.730Z,31.88
2018-09-27T19:11:37.833Z,32.21
2018-09-27T19:14:06.928Z,31.70
2018-09-27T19:16:36.479Z,30.82
2018-09-27T19:19:05.629Z,31.70
2018-09-27T19:21:34.729Z,32.14
2018-09-27T19:26:27.831Z,32.00
2018-09-27T19:28:56.906Z,31.24
2018-09-27T19:31:26.004Z,31.69
2018-09-27T19:33:55.432Z,30.32
2018-09-27T19:36:24.536Z,31.18
2018-09-27T19:38:53.617Z,30.94
2018-09-27T19:41:23.039Z,29.93
2018-09-27T19:43:52.164Z,30.54
2018-09-27T19:46:21.295Z,29.74
2018-09-27T19:48:50.745Z,30.03
2018-09-27T19:51:19.839Z,32.96
2018-09-27T19:53:48.917Z,32.82
2018-09-27T19:56:18.291Z,35.24
2018-09-27T19:58:47.920Z,35.46
2018-09-27T20:01:17.170Z,32.76
2018-09-27T20:03:46.389Z,33.14
2018-09-27T20:06:15.476Z,32.17
2018-09-27T20:08:44.588Z,33.28
2018-09-27T20:11:13.849Z,32.20
2018-09-27T20:13:42.923Z,31.75
2018-09-27T20:16:12.051Z,33.41
2018-09-27T20:18:41.788Z,32.25
2018-09-27T20:21:10.881Z,32.73
2018-09-27T20:23:39.985Z,33.47
2018-09-27T20:26:09.073Z,32.91
2018-09-27T20:28:38.228Z,33.69
2018-09-27T20:31:07.525Z,33.79
2018-09-27T20:33:36.796Z,33.50
2018-09-27T20:36:05.909Z,34.32
2018-09-27T20:38:34.970Z,34.31
2018-09-27T20:41:04.392Z,34.15
2018-09-27T20:43:34.383Z,33.81
2018-09-27T20:46:03.473Z,33.28
2018-09-27T20:48:32.597Z,33.92
2018-09-27T20:51:01.869Z,34.02
2018-09-27T20:53:30.985Z,34.58
2018-09-27T20:56:00.409Z,34.44
2018-09-27T20:58:29.520Z,33.55
2018-09-27T21:00:58.600Z,33.83
2018-09-27T21:03:27.863Z,32.59
2018-09-27T21:05:57.089Z,33.33
2018-09-27T21:08:26.182Z,33.81
2018-09-27T21:10:55.583Z,33.12
2018-09-27T21:13:24.659Z,33.65
2018-09-27T21:15:53.757Z,35.16
2018-09-27T21:18:23.134Z,34.12
2018-09-27T21:20:52.240Z,34.36
2018-09-27T21:23:21.330Z,34.76
2018-09-27T21:25:50.732Z,35.10
2018-09-27T21:28:19.965Z,35.55
2018-09-27T21:30:49.182Z,35.79
2018-09-27T21:33:18.274Z,35.24
2018-09-27T21:35:47.343Z,35.12
2018-09-27T21:38:16.704Z,34.96
2018-09-27T21:40:46.155Z,33.90
2018-09-27T21:43:15.269Z,33.52
2018-09-27T21:45:44.354Z,33.93
2018-09-27T21:48:13.570Z,33.60
2018-09-27T21:50:42.656Z,34.49
2018-09-27T21:53:11.735Z,35.03
2018-09-27T21:55:41.154Z,34.44
2018-09-27T21:58:10.225Z,33.83
2018-09-27T22:00:39.325Z,34.14
2018-09-27T22:03:08.766Z,33.64
2018-09-27T22:05:37.873Z,32.97
2018-09-27T22:08:06.980Z,32.88
2018-09-27T22:10:36.362Z,33.84
2018-09-27T22:13:05.389Z,33.94
2018-09-27T22:15:34.433Z,34.74
2018-09-27T22:18:03.676Z,36.50
2018-09-27T22:20:32.706Z,37.22
2018-09-27T22:23:01.745Z,37.85
2018-09-27T22:25:31.899Z,38.89
2018-09-27T22:28:01.003Z,39.72
2018-09-27T22:30:30.123Z,39.23
2018-09-27T22:32:59.316Z,38.34
2018-09-27T22:35:28.348Z,38.46
2018-09-27T22:37:57.381Z,39.97
2018-09-27T22:40:26.746Z,39.96
2018-09-27T22:42:55.806Z,40.33
2018-09-27T22:45:24.819Z,39.36
2018-09-27T22:47:54.013Z,39.08
2018-09-27T22:50:23.078Z,36.62
2018-09-27T22:52:52.126Z,39.50
2018-09-27T22:55:21.485Z,37.63
2018-09-27T22:57:50.546Z,39.92
2018-09-27T23:00:19.605Z,39.50
2018-09-27T23:02:48.782Z,39.28
2018-09-27T23:05:17.843Z,39.59
2018-09-27T23:07:46.881Z,38.37
2018-09-27T23:10:16.295Z,38.07
2018-09-27T23:12:45.354Z,37.74
2018-09-27T23:15:14.396Z,37.51
2018-09-27T23:17:43.754Z,37.99
2018-09-27T23:20:12.920Z,37.82
2018-09-27T23:22:41.941Z,39.07
2018-09-27T23:25:11.125Z,39.20
2018-09-27T23:27:40.159Z,39.46
2018-09-27T23:30:09.188Z,40.04
2018-09-27T23:32:38.376Z,40.06
2018-09-27T23:35:07.597Z,40.29
2018-09-27T23:37:36.702Z,40.59
2018-09-27T23:40:06.173Z,40.60
2018-09-27T23:42:35.207Z,40.38
2018-09-27T23:45:04.298Z,40.01
2018-09-27T23:47:33.498Z,39.93
2018-09-27T23:50:02.542Z,40.24
2018-09-27T23:52:31.598Z,39.57
2018-09-27T23:55:00.998Z,40.52
2018-09-27T23:57:30.022Z,40.80
2018-09-27T23:59:59.097Z,40.62
